Terminal Aerodrome Forecast
Issued by NWS St Louis, MO

Home | Current Version | Previous Version | Text Only | Print | Product List | Glossary On
Versions: 1 2 3 4 5 6 7 8 9 10 11 12 13 14 15 16 17 18 19 20 21 22 23 24 25 26 27 28 29 30 31 32 33
475
FTUS43 KLSX 201457 AAA
TAFSTL
TAF AMD
KSTL 201457Z 2015/2118 13010KT P6SM BKN250
     FM201700 16014G22KT P6SM BKN250
     FM210100 16011KT P6SM VCSH BKN060
     FM210400 19009KT 5SM -SHRA OVC025
     FM211100 27005KT 5SM BR VCSH BKN040
     FM211500 28005KT P6SM BKN040=

USA.gov is the U.S. government's official web portal to all federal, state and local government web resources and services.